Time,TemperatureF,DewpointF,PressureIn,WindDirection,WindDirectionDegrees,WindSpeedMPH,WindSpeedGustMPH,Humidity,HourlyPrecipIn,Conditions,Clouds,dailyrainin,SoftwareType,DateUTC
2013-09-28 00:04:00,48.9,46.7,30.32,WNW,301,0.0,0.0,92,0.00,,,0.00,Wunderground v.1.15,2013-09-28 04:04:00,
2013-09-28 00:09:00,48.8,46.6,30.32,WNW,301,0.0,0.0,92,0.00,,,0.00,Wunderground v.1.15,2013-09-28 04:09:00,
2013-09-28 00:19:00,48.4,46.2,30.33,WNW,301,0.0,0.0,92,0.00,,,0.00,Wunderground v.1.15,2013-09-28 04:19:00,
2013-09-28 00:25:00,48.2,46.0,30.33,WNW,301,0.0,0.0,92,0.00,,,0.00,Wunderground v.1.15,2013-09-28 04:25:00,
2013-09-28 00:30:00,47.9,45.7,30.33,WNW,301,0.0,0.0,92,0.00,,,0.00,Wunderground v.1.15,2013-09-28 04:30:00,
2013-09-28 00:35:00,47.7,45.5,30.33,WNW,301,0.0,0.0,92,0.00,,,0.00,Wunderground v.1.15,2013-09-28 04:35:00,
2013-09-28 00:39:00,47.6,45.7,30.33,WNW,301,0.0,0.0,93,0.00,,,0.00,Wunderground v.1.15,2013-09-28 04:39:00,
2013-09-28 00:44:00,47.4,45.5,30.33,WNW,301,0.0,0.0,93,0.00,,,0.00,Wunderground v.1.15,2013-09-28 04:44:00,
2013-09-28 00:49:00,47.3,45.4,30.33,WNW,301,0.0,0.0,93,0.00,,,0.00,Wunderground v.1.15,2013-09-28 04:49:00,
2013-09-28 00:54:00,47.2,45.3,30.33,WNW,301,0.0,0.0,93,0.00,,,0.00,Wunderground v.1.15,2013-09-28 04:54:00,
2013-09-28 01:00:00,47.0,45.1,30.33,WNW,301,0.0,0.0,93,0.00,,,0.00,Wunderground v.1.15,2013-09-28 05:00:00,
2013-09-28 01:05:00,46.9,45.0,30.33,WNW,301,0.0,0.0,93,0.00,,,0.00,Wunderground v.1.15,2013-09-28 05:05:00,
2013-09-28 01:10:00,46.8,44.9,30.33,WNW,301,0.0,0.0,93,0.00,,,0.00,Wunderground v.1.15,2013-09-28 05:10:00,
2013-09-28 01:14:00,46.7,45.1,30.33,WNW,301,0.0,0.0,94,0.00,,,0.00,Wunderground v.1.15,2013-09-28 05:14:00,
2013-09-28 01:19:00,46.7,45.1,30.33,WNW,301,0.0,0.0,94,0.00,,,0.00,Wunderground v.1.15,2013-09-28 05:19:00,
2013-09-28 01:24:00,46.5,44.9,30.33,WNW,301,0.0,0.0,94,0.00,,,0.00,Wunderground v.1.15,2013-09-28 05:24:00,
2013-09-28 01:29:00,46.4,44.8,30.33,WNW,301,0.0,0.0,94,0.00,,,0.00,Wunderground v.1.15,2013-09-28 05:29:00,
2013-09-28 01:34:00,46.3,44.7,30.33,WNW,301,0.0,0.0,94,0.00,,,0.00,Wunderground v.1.15,2013-09-28 05:34:00,
2013-09-28 01:40:00,46.2,44.6,30.33,WNW,301,0.0,0.0,94,0.00,,,0.00,Wunderground v.1.15,2013-09-28 05:40:00,
2013-09-28 01:45:00,46.4,45.0,30.34,WNW,301,0.0,0.0,95,0.00,,,0.00,Wunderground v.1.15,2013-09-28 05:45:00,
2013-09-28 01:50:00,46.4,45.0,30.33,WNW,301,0.0,0.0,95,0.00,,,0.00,Wunderground v.1.15,2013-09-28 05:50:00,
2013-09-28 01:54:00,46.4,44.8,30.33,WNW,301,0.0,0.0,94,0.00,,,0.00,Wunderground v.1.15,2013-09-28 05:54:00,
2013-09-28 01:59:00,46.4,44.8,30.34,WNW,301,0.0,0.0,94,0.00,,,0.00,Wunderground v.1.15,2013-09-28 05:59:00,
2013-09-28 02:04:00,46.4,45.0,30.34,WNW,301,0.0,0.0,95,0.00,,,0.00,Wunderground v.1.15,2013-09-28 06:04:00,
2013-09-28 02:09:00,46.5,45.1,30.34,WNW,301,0.0,0.0,95,0.00,,,0.00,Wunderground v.1.15,2013-09-28 06:09:00,
2013-09-28 02:15:00,46.5,45.1,30.33,WNW,301,0.0,0.0,95,0.00,,,0.00,Wunderground v.1.15,2013-09-28 06:15:00,
2013-09-28 02:20:00,46.5,45.1,30.33,WNW,301,0.0,0.0,95,0.00,,,0.00,Wunderground v.1.15,2013-09-28 06:20:00,
2013-09-28 02:25:00,46.5,45.1,30.33,WNW,301,0.0,0.0,95,0.00,,,0.00,Wunderground v.1.15,2013-09-28 06:25:00,
2013-09-28 02:29:00,46.5,45.1,30.33,WNW,301,0.0,0.0,95,0.00,,,0.00,Wunderground v.1.15,2013-09-28 06:29:00,
2013-09-28 02:34:00,46.4,45.0,30.33,WNW,301,0.0,0.0,95,0.00,,,0.00,Wunderground v.1.15,2013-09-28 06:34:00,
2013-09-28 02:39:00,46.3,44.9,30.33,WNW,301,0.0,0.0,95,0.00,,,0.00,Wunderground v.1.15,2013-09-28 06:39:00,
2013-09-28 02:44:00,46.2,44.8,30.33,WNW,301,0.0,0.0,95,0.00,,,0.00,Wunderground v.1.15,2013-09-28 06:44:00,
2013-09-28 02:50:00,46.1,44.7,30.33,WNW,301,0.0,0.0,95,0.00,,,0.00,Wunderground v.1.15,2013-09-28 06:50:00,
2013-09-28 02:55:00,46.1,44.7,30.33,WNW,301,0.0,0.0,95,0.00,,,0.00,Wunderground v.1.15,2013-09-28 06:55:00,
2013-09-28 02:59:00,46.0,44.6,30.33,WNW,301,0.0,0.0,95,0.00,,,0.00,Wunderground v.1.15,2013-09-28 06:59:00,
2013-09-28 03:04:00,45.9,44.5,30.33,WNW,301,0.0,0.0,95,0.00,,,0.00,Wunderground v.1.15,2013-09-28 07:04:00,
2013-09-28 03:09:00,45.9,44.5,30.33,WNW,301,0.0,0.0,95,0.00,,,0.00,Wunderground v.1.15,2013-09-28 07:09:00,
2013-09-28 03:14:00,45.9,44.5,30.33,WNW,301,0.0,0.0,95,0.00,,,0.00,Wunderground v.1.15,2013-09-28 07:14:00,
2013-09-28 03:19:00,45.8,44.4,30.33,WNW,301,0.0,0.0,95,0.00,,,0.00,Wunderground v.1.15,2013-09-28 07:19:00,
2013-09-28 03:25:00,45.8,44.4,30.33,WNW,301,0.0,0.0,95,0.00,,,0.00,Wunderground v.1.15,2013-09-28 07:25:00,
2013-09-28 03:30:00,45.7,44.4,30.33,WNW,301,0.0,0.0,95,0.00,,,0.00,Wunderground v.1.15,2013-09-28 07:30:00,
2013-09-28 03:35:00,45.6,44.3,30.33,WNW,301,0.0,0.0,95,0.00,,,0.00,Wunderground v.1.15,2013-09-28 07:35:00,
2013-09-28 03:39:00,45.5,44.2,30.33,WNW,301,0.0,0.0,95,0.00,,,0.00,Wunderground v.1.15,2013-09-28 07:39:00,
2013-09-28 03:44:00,45.6,44.3,30.33,WNW,301,0.0,0.0,95,0.00,,,0.00,Wunderground v.1.15,2013-09-28 07:44:00,
2013-09-28 03:49:00,45.6,44.3,30.33,WNW,301,0.0,0.0,95,0.00,,,0.00,Wunderground v.1.15,2013-09-28 07:49:00,
2013-09-28 03:54:00,45.6,44.3,30.33,WNW,301,0.0,0.0,95,0.00,,,0.00,Wunderground v.1.15,2013-09-28 07:54:00,
2013-09-28 04:00:00,45.6,44.3,30.33,WNW,301,0.0,0.0,95,0.00,,,0.00,Wunderground v.1.15,2013-09-28 08:00:00,
2013-09-28 04:05:00,45.5,44.2,30.33,WNW,301,0.0,0.0,95,0.00,,,0.00,Wunderground v.1.15,2013-09-28 08:05:00,
2013-09-28 04:10:00,45.5,44.2,30.33,WNW,301,0.0,0.0,95,0.00,,,0.00,Wunderground v.1.15,2013-09-28 08:10:00,
2013-09-28 04:14:00,45.5,44.2,30.33,WNW,301,0.0,0.0,95,0.00,,,0.00,Wunderground v.1.15,2013-09-28 08:14:00,
2013-09-28 04:20:00,45.4,44.1,30.33,WNW,301,0.0,0.0,95,0.00,,,0.00,Wunderground v.1.15,2013-09-28 08:20:00,
2013-09-28 04:24:00,45.4,44.1,30.33,WNW,301,0.0,0.0,95,0.00,,,0.00,Wunderground v.1.15,2013-09-28 08:24:00,
2013-09-28 04:29:00,45.3,44.0,30.34,WNW,301,0.0,0.0,95,0.00,,,0.00,Wunderground v.1.15,2013-09-28 08:29:00,
2013-09-28 04:34:00,45.2,43.9,30.34,WNW,301,0.0,0.0,95,0.00,,,0.00,Wunderground v.1.15,2013-09-28 08:34:00,
2013-09-28 04:39:00,45.1,43.8,30.34,WNW,301,0.0,0.0,95,0.00,,,0.00,Wunderground v.1.15,2013-09-28 08:39:00,
2013-09-28 04:45:00,44.9,43.6,30.34,WNW,301,0.0,0.0,95,0.00,,,0.00,Wunderground v.1.15,2013-09-28 08:45:00,
2013-09-28 04:50:00,44.8,43.5,30.34,WNW,301,0.0,0.0,95,0.00,,,0.00,Wunderground v.1.15,2013-09-28 08:50:00,
2013-09-28 04:55:00,44.7,43.4,30.34,WNW,301,0.0,0.0,95,0.00,,,0.00,Wunderground v.1.15,2013-09-28 08:55:00,
2013-09-28 05:00:00,44.7,43.4,30.34,WNW,301,0.0,0.0,95,0.00,,,0.00,Wunderground v.1.15,2013-09-28 09:00:00,
2013-09-28 05:05:00,44.7,43.4,30.34,WNW,301,0.0,0.0,95,0.00,,,0.00,Wunderground v.1.15,2013-09-28 09:05:00,
2013-09-28 05:09:00,44.7,43.4,30.34,WNW,301,0.0,0.0,95,0.00,,,0.00,Wunderground v.1.15,2013-09-28 09:09:00,
2013-09-28 05:14:00,44.7,43.4,30.34,WNW,301,0.0,0.0,95,0.00,,,0.00,Wunderground v.1.15,2013-09-28 09:14:00,
2013-09-28 05:19:00,44.6,43.3,30.34,WNW,301,0.0,0.0,95,0.00,,,0.00,Wunderground v.1.15,2013-09-28 09:19:00,
2013-09-28 05:25:00,44.5,43.2,30.35,WNW,301,0.0,0.0,95,0.00,,,0.00,Wunderground v.1.15,2013-09-28 09:25:00,
2013-09-28 05:30:00,44.3,43.0,30.35,WNW,301,0.0,0.0,95,0.00,,,0.00,Wunderground v.1.15,2013-09-28 09:30:00,
2013-09-28 05:35:00,44.2,42.9,30.35,WNW,301,0.0,0.0,95,0.00,,,0.00,Wunderground v.1.15,2013-09-28 09:35:00,
2013-09-28 05:40:00,44.0,42.7,30.35,WNW,301,0.0,0.0,95,0.00,,,0.00,Wunderground v.1.15,2013-09-28 09:40:00,
2013-09-28 05:44:00,43.9,42.6,30.35,WNW,301,0.0,0.0,95,0.00,,,0.00,Wunderground v.1.15,2013-09-28 09:44:00,
2013-09-28 05:49:00,43.9,42.6,30.35,WNW,301,0.0,0.0,95,0.00,,,0.00,Wunderground v.1.15,2013-09-28 09:49:00,
2013-09-28 05:55:00,43.9,42.6,30.36,WNW,301,0.0,0.0,95,0.00,,,0.00,Wunderground v.1.15,2013-09-28 09:55:00,
2013-09-28 06:00:00,43.8,42.5,30.36,WNW,301,0.0,0.0,95,0.00,,,0.00,Wunderground v.1.15,2013-09-28 10:00:00,
2013-09-28 06:05:00,43.8,42.5,30.36,WNW,301,0.0,0.0,95,0.00,,,0.00,Wunderground v.1.15,2013-09-28 10:05:00,
2013-09-28 06:10:00,43.8,42.5,30.36,WNW,301,0.0,0.0,95,0.00,,,0.00,Wunderground v.1.15,2013-09-28 10:10:00,
2013-09-28 06:14:00,43.9,42.6,30.36,WNW,301,0.0,0.0,95,0.00,,,0.00,Wunderground v.1.15,2013-09-28 10:14:00,
2013-09-28 06:19:00,44.0,42.7,30.36,WNW,301,0.0,0.0,95,0.00,,,0.00,Wunderground v.1.15,2013-09-28 10:19:00,
2013-09-28 06:24:00,44.1,43.0,30.36,WNW,301,0.0,0.0,96,0.00,,,0.00,Wunderground v.1.15,2013-09-28 10:24:00,
2013-09-28 06:29:00,44.2,43.1,30.36,WNW,301,0.0,0.0,96,0.00,,,0.00,Wunderground v.1.15,2013-09-28 10:29:00,
2013-09-28 06:35:00,44.3,43.2,30.36,WNW,301,0.0,0.0,96,0.00,,,0.00,Wunderground v.1.15,2013-09-28 10:35:00,
2013-09-28 06:40:00,44.2,43.1,30.37,WNW,301,0.0,0.0,96,0.00,,,0.00,Wunderground v.1.15,2013-09-28 10:40:00,
2013-09-28 06:45:00,44.2,43.1,30.37,WNW,301,0.0,0.0,96,0.00,,,0.00,Wunderground v.1.15,2013-09-28 10:45:00,
2013-09-28 06:50:00,44.1,43.0,30.37,WNW,301,0.0,0.0,96,0.00,,,0.00,Wunderground v.1.15,2013-09-28 10:50:00,
2013-09-28 06:54:00,44.1,42.8,30.37,WNW,301,0.0,0.0,95,0.00,,,0.00,Wunderground v.1.15,2013-09-28 10:54:00,
2013-09-28 06:59:00,44.0,42.7,30.37,WNW,301,0.0,0.0,95,0.00,,,0.00,Wunderground v.1.15,2013-09-28 10:59:00,
2013-09-28 07:05:00,44.0,42.7,30.37,WNW,301,0.0,0.0,95,0.00,,,0.00,Wunderground v.1.15,2013-09-28 11:05:00,
2013-09-28 07:10:00,43.9,42.6,30.37,WNW,301,0.0,0.0,95,0.00,,,0.00,Wunderground v.1.15,2013-09-28 11:10:00,
2013-09-28 07:15:00,43.9,42.6,30.37,WNW,301,0.0,0.0,95,0.00,,,0.00,Wunderground v.1.15,2013-09-28 11:15:00,
2013-09-28 07:20:00,44.0,42.7,30.37,WNW,301,0.0,0.0,95,0.00,,,0.00,Wunderground v.1.15,2013-09-28 11:20:00,
2013-09-28 07:29:00,44.2,43.1,30.38,WNW,301,0.0,0.0,96,0.00,,,0.00,Wunderground v.1.15,2013-09-28 11:29:00,
2013-09-28 07:34:00,44.5,43.4,30.37,WNW,301,0.0,0.0,96,0.00,,,0.00,Wunderground v.1.15,2013-09-28 11:34:00,
2013-09-28 07:39:00,44.8,43.7,30.37,WNW,301,0.0,0.0,96,0.00,,,0.00,Wunderground v.1.15,2013-09-28 11:39:00,
2013-09-28 07:45:00,45.5,44.4,30.37,WNW,301,0.0,0.0,96,0.00,,,0.00,Wunderground v.1.15,2013-09-28 11:45:00,
2013-09-28 07:50:00,46.2,45.1,30.37,WNW,301,0.0,0.0,96,0.00,,,0.00,Wunderground v.1.15,2013-09-28 11:50:00,
2013-09-28 07:55:00,46.6,45.8,30.37,WNW,301,0.0,0.0,97,0.00,,,0.00,Wunderground v.1.15,2013-09-28 11:55:00,
2013-09-28 08:00:00,46.8,45.7,30.38,WNW,301,0.0,0.0,96,0.00,,,0.00,Wunderground v.1.15,2013-09-28 12:00:00,
2013-09-28 08:04:00,47.0,46.2,30.38,WNW,301,0.0,0.0,97,0.00,,,0.00,Wunderground v.1.15,2013-09-28 12:04:00,
2013-09-28 08:09:00,47.2,46.4,30.38,WNW,301,0.0,0.0,97,0.00,,,0.00,Wunderground v.1.15,2013-09-28 12:09:00,
2013-09-28 08:14:00,47.5,46.4,30.38,WNW,301,0.0,0.0,96,0.00,,,0.00,Wunderground v.1.15,2013-09-28 12:14:00,
2013-09-28 08:19:00,48.0,47.2,30.38,WNW,301,0.0,0.0,97,0.00,,,0.00,Wunderground v.1.15,2013-09-28 12:19:00,
2013-09-28 08:30:00,48.8,48.0,30.38,WNW,301,0.0,0.0,97,0.00,,,0.00,Wunderground v.1.15,2013-09-28 12:30:00,
2013-09-28 08:35:00,49.3,48.5,30.38,WNW,301,0.0,0.0,97,0.00,,,0.00,Wunderground v.1.15,2013-09-28 12:35:00,
2013-09-28 08:40:00,49.6,48.8,30.38,WNW,301,0.0,0.0,97,0.00,,,0.00,Wunderground v.1.15,2013-09-28 12:40:00,
2013-09-28 08:49:00,50.4,49.6,30.39,WNW,301,0.0,0.0,97,0.00,,,0.00,Wunderground v.1.15,2013-09-28 12:49:00,
2013-09-28 08:54:00,50.6,49.8,30.39,WNW,301,0.0,0.0,97,0.00,,,0.00,Wunderground v.1.15,2013-09-28 12:54:00,
2013-09-28 09:04:00,51.5,50.7,30.39,WNW,301,0.0,0.0,97,0.00,,,0.00,Wunderground v.1.15,2013-09-28 13:04:00,
2013-09-28 09:09:00,52.0,51.2,30.39,WNW,301,0.0,0.0,97,0.00,,,0.00,Wunderground v.1.15,2013-09-28 13:09:00,
2013-09-28 09:15:00,52.5,51.7,30.39,WNW,301,0.0,0.0,97,0.00,,,0.00,Wunderground v.1.15,2013-09-28 13:15:00,
2013-09-28 09:20:00,52.7,51.9,30.39,WNW,301,0.0,0.0,97,0.00,,,0.00,Wunderground v.1.15,2013-09-28 13:20:00,
2013-09-28 09:25:00,52.9,52.1,30.39,WNW,301,0.0,0.0,97,0.00,,,0.00,Wunderground v.1.15,2013-09-28 13:25:00,
2013-09-28 09:29:00,53.1,52.3,30.39,WNW,301,0.0,0.0,97,0.00,,,0.00,Wunderground v.1.15,2013-09-28 13:29:00,
2013-09-28 09:34:00,53.4,52.6,30.39,WNW,301,0.0,0.0,97,0.00,,,0.00,Wunderground v.1.15,2013-09-28 13:34:00,
2013-09-28 09:39:00,53.9,53.1,30.39,WNW,301,0.0,0.0,97,0.00,,,0.00,Wunderground v.1.15,2013-09-28 13:39:00,
2013-09-28 09:44:00,54.4,53.3,30.39,WNW,301,0.0,0.0,96,0.00,,,0.00,Wunderground v.1.15,2013-09-28 13:44:00,
2013-09-28 09:49:00,54.7,53.0,30.39,North,355,0.0,0.0,94,0.00,,,0.00,Wunderground v.1.15,2013-09-28 13:49:00,
2013-09-28 09:55:00,55.1,53.1,30.39,North,355,0.0,0.0,93,0.00,,,0.00,Wunderground v.1.15,2013-09-28 13:55:00,
2013-09-28 10:00:00,55.6,53.0,30.39,North,355,0.0,0.0,91,0.00,,,0.00,Wunderground v.1.15,2013-09-28 14:00:00,
2013-09-28 10:04:00,56.1,53.5,30.39,North,355,0.0,0.0,91,0.00,,,0.00,Wunderground v.1.15,2013-09-28 14:04:00,
2013-09-28 10:10:00,56.6,53.4,30.39,North,355,0.0,0.0,89,0.00,,,0.00,Wunderground v.1.15,2013-09-28 14:10:00,
2013-09-28 10:19:00,57.8,54.0,30.39,North,355,0.0,0.0,87,0.00,,,0.00,Wunderground v.1.15,2013-09-28 14:19:00,
2013-09-28 10:24:00,58.3,54.4,30.39,North,355,0.0,0.0,87,0.00,,,0.00,Wunderground v.1.15,2013-09-28 14:24:00,
2013-09-28 10:29:00,58.9,54.7,30.39,North,355,0.0,0.0,86,0.00,,,0.00,Wunderground v.1.15,2013-09-28 14:29:00,
2013-09-28 10:35:00,59.5,54.0,30.39,North,360,0.0,0.0,82,0.00,,,0.00,Wunderground v.1.15,2013-09-28 14:35:00,
2013-09-28 10:40:00,60.1,54.9,30.39,SSE,148,0.0,1.0,83,0.00,,,0.00,Wunderground v.1.15,2013-09-28 14:40:00,
2013-09-28 10:45:00,60.5,54.3,30.39,SSE,157,1.0,1.0,80,0.00,,,0.00,Wunderground v.1.15,2013-09-28 14:45:00,
2013-09-28 10:50:00,61.1,54.9,30.39,SSE,157,1.0,1.0,80,0.00,,,0.00,Wunderground v.1.15,2013-09-28 14:50:00,
2013-09-28 10:54:00,61.5,54.9,30.38,SSE,157,0.0,1.0,79,0.00,,,0.00,Wunderground v.1.15,2013-09-28 14:54:00,
2013-09-28 10:59:00,61.9,55.0,30.38,SSE,165,0.0,0.0,78,0.00,,,0.00,Wunderground v.1.15,2013-09-28 14:59:00,
2013-09-28 11:04:00,62.5,55.5,30.39,East,92,0.0,0.0,78,0.00,,,0.00,Wunderground v.1.15,2013-09-28 15:04:00,
2013-09-28 11:10:00,63.1,55.8,30.38,East,92,0.0,0.0,77,0.00,,,0.00,Wunderground v.1.15,2013-09-28 15:10:00,
2013-09-28 11:14:00,63.8,55.7,30.38,East,92,0.0,0.0,75,0.00,,,0.00,Wunderground v.1.15,2013-09-28 15:14:00,
2013-09-28 11:20:00,64.1,54.9,30.38,East,92,0.0,0.0,72,0.00,,,0.00,Wunderground v.1.15,2013-09-28 15:20:00,
2013-09-28 11:25:00,64.7,55.8,30.38,East,92,0.0,0.0,73,0.00,,,0.00,Wunderground v.1.15,2013-09-28 15:25:00,
2013-09-28 11:29:00,65.4,55.0,30.38,East,92,0.0,0.0,69,0.00,,,0.00,Wunderground v.1.15,2013-09-28 15:29:00,
2013-09-28 11:34:00,66.2,56.5,30.38,East,90,0.0,0.0,71,0.00,,,0.00,Wunderground v.1.15,2013-09-28 15:34:00,
2013-09-28 11:39:00,66.6,54.9,30.38,ENE,77,0.0,0.0,66,0.00,,,0.00,Wunderground v.1.15,2013-09-28 15:39:00,
2013-09-28 11:44:00,66.6,55.3,30.37,ENE,74,0.0,0.0,67,0.00,,,0.00,Wunderground v.1.15,2013-09-28 15:44:00,
2013-09-28 11:49:00,66.7,55.0,30.37,East,90,0.0,0.0,66,0.00,,,0.00,Wunderground v.1.15,2013-09-28 15:49:00,
2013-09-28 11:55:00,66.9,56.0,30.37,SE,128,0.0,0.0,68,0.00,,,0.00,Wunderground v.1.15,2013-09-28 15:55:00,
2013-09-28 12:00:00,67.5,57.0,30.37,ESE,110,0.0,1.0,69,0.00,,,0.00,Wunderground v.1.15,2013-09-28 16:00:00,
2013-09-28 12:05:00,67.9,55.7,30.37,East,87,0.0,1.0,65,0.00,,,0.00,Wunderground v.1.15,2013-09-28 16:05:00,
2013-09-28 12:09:00,68.1,56.7,30.36,East,84,0.0,0.0,67,0.00,,,0.00,Wunderground v.1.15,2013-09-28 16:09:00,
2013-09-28 12:14:00,68.0,55.4,30.36,South,182,0.0,0.0,64,0.00,,,0.00,Wunderground v.1.15,2013-09-28 16:14:00,
2013-09-28 12:19:00,68.0,56.6,30.36,NNE,32,0.0,0.0,67,0.00,,,0.00,Wunderground v.1.15,2013-09-28 16:19:00,
2013-09-28 12:24:00,68.2,56.0,30.36,SSE,165,0.0,0.0,65,0.00,,,0.00,Wunderground v.1.15,2013-09-28 16:24:00,
2013-09-28 12:29:00,68.3,56.1,30.36,SSE,161,0.0,0.0,65,0.00,,,0.00,Wunderground v.1.15,2013-09-28 16:29:00,
2013-09-28 12:35:00,68.8,56.1,30.36,NE,42,0.0,0.0,64,0.00,,,0.00,Wunderground v.1.15,2013-09-28 16:35:00,
2013-09-28 12:40:00,69.3,56.2,30.36,NE,42,0.0,0.0,63,0.00,,,0.00,Wunderground v.1.15,2013-09-28 16:40:00,
2013-09-28 12:44:00,69.6,56.0,30.35,ESE,119,0.0,1.0,62,0.00,,,0.00,Wunderground v.1.15,2013-09-28 16:44:00,
2013-09-28 12:49:00,69.9,57.6,30.35,East,86,0.0,0.0,65,0.00,,,0.00,Wunderground v.1.15,2013-09-28 16:49:00,
2013-09-28 12:54:00,69.7,55.2,30.35,SSE,152,0.0,1.0,60,0.00,,,0.00,Wunderground v.1.15,2013-09-28 16:54:00,
2013-09-28 12:59:00,69.0,53.6,30.35,South,184,1.0,1.0,58,0.00,,,0.00,Wunderground v.1.15,2013-09-28 16:59:00,
2013-09-28 13:04:00,68.9,54.4,30.35,SSW,196,1.0,1.0,60,0.00,,,0.00,Wunderground v.1.15,2013-09-28 17:04:00,
2013-09-28 13:10:00,69.6,56.9,30.35,SE,145,0.0,0.0,64,0.00,,,0.00,Wunderground v.1.15,2013-09-28 17:10:00,
2013-09-28 13:15:00,70.2,57.0,30.34,ESE,107,0.0,0.0,63,0.00,,,0.00,Wunderground v.1.15,2013-09-28 17:15:00,
2013-09-28 13:20:00,70.8,55.8,30.34,ESE,107,0.0,0.0,59,0.00,,,0.00,Wunderground v.1.15,2013-09-28 17:20:00,
2013-09-28 13:29:00,71.4,53.9,30.34,WNW,297,0.0,0.0,54,0.00,,,0.00,Wunderground v.1.15,2013-09-28 17:29:00,
2013-09-28 13:34:00,71.8,57.2,30.34,WNW,297,0.0,0.0,60,0.00,,,0.00,Wunderground v.1.15,2013-09-28 17:34:00,
2013-09-28 13:39:00,72.0,56.4,30.33,WNW,296,0.0,0.0,58,0.00,,,0.00,Wunderground v.1.15,2013-09-28 17:39:00,
2013-09-28 13:44:00,72.2,55.6,30.33,WNW,297,0.0,0.0,56,0.00,,,0.00,Wunderground v.1.15,2013-09-28 17:44:00,
2013-09-28 13:50:00,72.4,55.8,30.33,NNE,24,0.0,0.0,56,0.00,,,0.00,Wunderground v.1.15,2013-09-28 17:50:00,
2013-09-28 13:55:00,72.4,54.8,30.33,NNW,336,0.0,0.0,54,0.00,,,0.00,Wunderground v.1.15,2013-09-28 17:55:00,
2013-09-28 14:00:00,72.6,55.0,30.33,NE,39,0.0,0.0,54,0.00,,,0.00,Wunderground v.1.15,2013-09-28 18:00:00,
2013-09-28 14:04:00,72.9,56.8,30.32,NE,39,0.0,0.0,57,0.00,,,0.00,Wunderground v.1.15,2013-09-28 18:04:00,
2013-09-28 14:09:00,73.3,56.2,30.32,NE,39,0.0,0.0,55,0.00,,,0.00,Wunderground v.1.15,2013-09-28 18:09:00,
2013-09-28 14:14:00,73.6,54.4,30.32,SSE,148,0.0,0.0,51,0.00,,,0.00,Wunderground v.1.15,2013-09-28 18:14:00,
2013-09-28 14:19:00,73.3,54.6,30.32,SSE,148,0.0,0.0,52,0.00,,,0.00,Wunderground v.1.15,2013-09-28 18:19:00,
2013-09-28 14:24:00,73.1,54.4,30.32,East,90,0.0,0.0,52,0.00,,,0.00,Wunderground v.1.15,2013-09-28 18:24:00,
2013-09-28 14:30:00,73.1,54.4,30.31,NE,34,0.0,0.0,52,0.00,,,0.00,Wunderground v.1.15,2013-09-28 18:30:00,
2013-09-28 14:35:00,73.4,55.7,30.31,NE,34,0.0,0.0,54,0.00,,,0.00,Wunderground v.1.15,2013-09-28 18:35:00,
2013-09-28 14:45:00,73.7,56.5,30.31,East,86,0.0,0.0,55,0.00,,,0.00,Wunderground v.1.15,2013-09-28 18:45:00,
2013-09-28 14:49:00,74.1,54.3,30.31,East,80,0.0,0.0,50,0.00,,,0.00,Wunderground v.1.15,2013-09-28 18:49:00,
2013-09-28 14:54:00,74.2,54.9,30.31,East,80,0.0,0.0,51,0.00,,,0.00,Wunderground v.1.15,2013-09-28 18:54:00,
2013-09-28 14:59:00,74.2,52.1,30.31,ENE,64,0.0,0.0,46,0.00,,,0.00,Wunderground v.1.15,2013-09-28 18:59:00,
2013-09-28 15:04:00,74.2,53.2,30.31,NNE,26,0.0,0.0,48,0.00,,,0.00,Wunderground v.1.15,2013-09-28 19:04:00,
2013-09-28 15:10:00,74.4,54.5,30.31,West,277,0.0,0.0,50,0.00,,,0.00,Wunderground v.1.15,2013-09-28 19:10:00,
2013-09-28 15:15:00,74.3,50.4,30.31,North,11,0.0,0.0,43,0.00,,,0.00,Wunderground v.1.15,2013-09-28 19:15:00,
2013-09-28 15:20:00,74.2,49.6,30.31,ESE,119,0.0,0.0,42,0.00,,,0.00,Wunderground v.1.15,2013-09-28 19:20:00,
2013-09-28 15:25:00,74.2,52.1,30.30,ESE,112,0.0,0.0,46,0.00,,,0.00,Wunderground v.1.15,2013-09-28 19:25:00,
2013-09-28 15:34:00,74.1,50.8,30.30,ESE,110,0.0,0.0,44,0.00,,,0.00,Wunderground v.1.15,2013-09-28 19:34:00,
2013-09-28 15:39:00,73.6,50.9,30.30,SSE,155,0.0,0.0,45,0.00,,,0.00,Wunderground v.1.15,2013-09-28 19:39:00,
2013-09-28 15:44:00,73.3,51.3,30.30,SSE,155,0.0,0.0,46,0.00,,,0.00,Wunderground v.1.15,2013-09-28 19:44:00,
2013-09-28 15:50:00,72.9,51.5,30.30,SSE,155,0.0,0.0,47,0.00,,,0.00,Wunderground v.1.15,2013-09-28 19:50:00,
2013-09-28 15:55:00,72.2,50.8,30.30,SSE,168,0.0,0.0,47,0.00,,,0.00,Wunderground v.1.15,2013-09-28 19:55:00,
2013-09-28 16:00:00,71.7,52.1,30.30,SSE,160,0.0,0.0,50,0.00,,,0.00,Wunderground v.1.15,2013-09-28 20:00:00,
2013-09-28 16:05:00,71.6,52.0,30.29,SSE,160,0.0,0.0,50,0.00,,,0.00,Wunderground v.1.15,2013-09-28 20:05:00,
2013-09-28 16:09:00,71.5,54.0,30.29,SSE,160,0.0,0.0,54,0.00,,,0.00,Wunderground v.1.15,2013-09-28 20:09:00,
2013-09-28 16:14:00,71.2,53.7,30.29,SSE,160,0.0,0.0,54,0.00,,,0.00,Wunderground v.1.15,2013-09-28 20:14:00,
2013-09-28 16:19:00,71.0,54.0,30.29,SSE,160,0.0,0.0,55,0.00,,,0.00,Wunderground v.1.15,2013-09-28 20:19:00,
2013-09-28 16:24:00,70.8,53.3,30.29,SSE,160,0.0,0.0,54,0.00,,,0.00,Wunderground v.1.15,2013-09-28 20:24:00,
2013-09-28 16:29:00,70.4,54.0,30.29,SSE,155,0.0,0.0,56,0.00,,,0.00,Wunderground v.1.15,2013-09-28 20:29:00,
2013-09-28 16:35:00,70.1,53.7,30.29,SSE,155,0.0,0.0,56,0.00,,,0.00,Wunderground v.1.15,2013-09-28 20:35:00,
2013-09-28 16:40:00,69.9,53.0,30.29,SSE,155,0.0,0.0,55,0.00,,,0.00,Wunderground v.1.15,2013-09-28 20:40:00,
2013-09-28 16:45:00,69.6,54.6,30.28,NNE,17,0.0,0.0,59,0.00,,,0.00,Wunderground v.1.15,2013-09-28 20:45:00,
2013-09-28 16:49:00,69.3,53.9,30.28,NNE,17,0.0,0.0,58,0.00,,,0.00,Wunderground v.1.15,2013-09-28 20:49:00,
2013-09-28 16:54:00,69.1,54.2,30.28,NNE,17,0.0,0.0,59,0.00,,,0.00,Wunderground v.1.15,2013-09-28 20:54:00,
2013-09-28 16:59:00,69.0,55.4,30.29,NNE,17,0.0,0.0,62,0.00,,,0.00,Wunderground v.1.15,2013-09-28 20:59:00,
2013-09-28 17:04:00,68.8,53.4,30.29,ESE,104,0.0,0.0,58,0.00,,,0.00,Wunderground v.1.15,2013-09-28 21:04:00,
2013-09-28 17:09:00,68.6,52.8,30.28,ESE,104,0.0,0.0,57,0.00,,,0.00,Wunderground v.1.15,2013-09-28 21:09:00,
2013-09-28 17:15:00,68.4,53.5,30.29,ESE,104,0.0,0.0,59,0.00,,,0.00,Wunderground v.1.15,2013-09-28 21:15:00,
2013-09-28 17:20:00,68.1,53.2,30.29,ESE,104,0.0,0.0,59,0.00,,,0.00,Wunderground v.1.15,2013-09-28 21:20:00,
2013-09-28 17:25:00,67.9,53.0,30.28,ESE,104,0.0,0.0,59,0.00,,,0.00,Wunderground v.1.15,2013-09-28 21:25:00,
2013-09-28 17:34:00,67.2,52.4,30.28,ESE,104,0.0,0.0,59,0.00,,,0.00,Wunderground v.1.15,2013-09-28 21:34:00,
2013-09-28 17:39:00,67.0,53.1,30.29,ESE,104,0.0,0.0,61,0.00,,,0.00,Wunderground v.1.15,2013-09-28 21:39:00,
2013-09-28 17:44:00,66.7,52.8,30.29,ESE,104,0.0,0.0,61,0.00,,,0.00,Wunderground v.1.15,2013-09-28 21:44:00,
2013-09-28 17:49:00,66.4,53.4,30.28,ESE,104,0.0,0.0,63,0.00,,,0.00,Wunderground v.1.15,2013-09-28 21:49:00,
2013-09-28 17:55:00,66.1,54.8,30.28,ESE,104,0.0,0.0,67,0.00,,,0.00,Wunderground v.1.15,2013-09-28 21:55:00,
2013-09-28 18:00:00,65.8,54.5,30.28,ESE,104,0.0,0.0,67,0.00,,,0.00,Wunderground v.1.15,2013-09-28 22:00:00,
2013-09-28 18:04:00,65.4,54.2,30.28,ESE,104,0.0,0.0,67,0.00,,,0.00,Wunderground v.1.15,2013-09-28 22:04:00,
2013-09-28 18:09:00,65.0,54.6,30.28,ESE,104,0.0,0.0,69,0.00,,,0.00,Wunderground v.1.15,2013-09-28 22:09:00,
2013-09-28 18:14:00,64.5,54.1,30.28,ESE,104,0.0,0.0,69,0.00,,,0.00,Wunderground v.1.15,2013-09-28 22:14:00,
2013-09-28 18:19:00,64.1,54.1,30.28,ESE,104,0.0,0.0,70,0.00,,,0.00,Wunderground v.1.15,2013-09-28 22:19:00,
2013-09-28 18:24:00,63.6,54.0,30.28,ESE,104,0.0,0.0,71,0.00,,,0.00,Wunderground v.1.15,2013-09-28 22:24:00,
2013-09-28 18:30:00,63.1,54.3,30.28,ESE,104,0.0,0.0,73,0.00,,,0.00,Wunderground v.1.15,2013-09-28 22:30:00,
2013-09-28 18:35:00,62.6,53.8,30.28,ESE,104,0.0,0.0,73,0.00,,,0.00,Wunderground v.1.15,2013-09-28 22:35:00,
2013-09-28 18:40:00,62.1,53.0,30.28,ESE,104,0.0,0.0,72,0.00,,,0.00,Wunderground v.1.15,2013-09-28 22:40:00,
2013-09-28 18:49:00,61.3,53.7,30.28,ESE,104,0.0,0.0,76,0.00,,,0.00,Wunderground v.1.15,2013-09-28 22:49:00,
2013-09-28 18:54:00,60.7,53.8,30.28,ESE,104,0.0,0.0,78,0.00,,,0.00,Wunderground v.1.15,2013-09-28 22:54:00,
2013-09-28 18:59:00,60.2,53.7,30.28,ESE,104,0.0,0.0,79,0.00,,,0.00,Wunderground v.1.15,2013-09-28 22:59:00,
2013-09-28 19:04:00,59.6,53.4,30.28,ESE,104,0.0,0.0,80,0.00,,,0.00,Wunderground v.1.15,2013-09-28 23:04:00,
2013-09-28 19:09:00,59.0,53.2,30.27,ESE,104,0.0,0.0,81,0.00,,,0.00,Wunderground v.1.15,2013-09-28 23:09:00,
2013-09-28 19:15:00,58.4,52.9,30.28,ESE,104,0.0,0.0,82,0.00,,,0.00,Wunderground v.1.15,2013-09-28 23:15:00,
2013-09-28 19:24:00,57.4,52.3,30.28,ESE,104,0.0,0.0,83,0.00,,,0.00,Wunderground v.1.15,2013-09-28 23:24:00,
2013-09-28 19:29:00,57.0,51.9,30.28,ESE,104,0.0,0.0,83,0.00,,,0.00,Wunderground v.1.15,2013-09-28 23:29:00,
2013-09-28 19:34:00,56.8,51.7,30.28,ESE,104,0.0,0.0,83,0.00,,,0.00,Wunderground v.1.15,2013-09-28 23:34:00,
2013-09-28 19:39:00,56.5,51.4,30.28,ESE,104,0.0,0.0,83,0.00,,,0.00,Wunderground v.1.15,2013-09-28 23:39:00,
2013-09-28 19:44:00,56.2,51.4,30.28,ESE,104,0.0,0.0,84,0.00,,,0.00,Wunderground v.1.15,2013-09-28 23:44:00,
2013-09-28 19:50:00,55.9,51.5,30.28,ESE,104,0.0,0.0,85,0.00,,,0.00,Wunderground v.1.15,2013-09-28 23:50:00,
2013-09-28 19:59:00,55.3,50.9,30.28,ESE,104,0.0,0.0,85,0.00,,,0.00,Wunderground v.1.15,2013-09-28 23:59:00,
2013-09-28 20:04:00,54.9,50.8,30.28,ESE,104,0.0,0.0,86,0.00,,,0.00,Wunderground v.1.15,2013-09-29 00:04:00,
2013-09-28 20:09:00,54.6,50.5,30.28,ESE,104,0.0,0.0,86,0.00,,,0.00,Wunderground v.1.15,2013-09-29 00:09:00,
2013-09-28 20:15:00,54.4,50.3,30.28,ESE,104,0.0,0.0,86,0.00,,,0.00,Wunderground v.1.15,2013-09-29 00:15:00,
2013-09-28 20:20:00,54.1,50.3,30.28,ESE,104,0.0,0.0,87,0.00,,,0.00,Wunderground v.1.15,2013-09-29 00:20:00,
2013-09-28 20:25:00,53.9,50.4,30.28,ESE,104,0.0,0.0,88,0.00,,,0.00,Wunderground v.1.15,2013-09-29 00:25:00,
2013-09-28 20:34:00,53.6,50.1,30.28,ESE,104,0.0,0.0,88,0.00,,,0.00,Wunderground v.1.15,2013-09-29 00:34:00,
2013-09-28 20:39:00,53.5,50.3,30.28,ESE,104,0.0,0.0,89,0.00,,,0.00,Wunderground v.1.15,2013-09-29 00:39:00,
2013-09-28 20:44:00,53.3,50.1,30.28,ESE,104,0.0,0.0,89,0.00,,,0.00,Wunderground v.1.15,2013-09-29 00:44:00,
2013-09-28 20:49:00,53.2,50.0,30.28,ESE,104,0.0,0.0,89,0.00,,,0.00,Wunderground v.1.15,2013-09-29 00:49:00,
2013-09-28 20:55:00,53.1,49.9,30.28,ESE,104,0.0,0.0,89,0.00,,,0.00,Wunderground v.1.15,2013-09-29 00:55:00,
2013-09-28 21:00:00,53.0,50.1,30.28,ESE,104,0.0,0.0,90,0.00,,,0.00,Wunderground v.1.15,2013-09-29 01:00:00,
2013-09-28 21:04:00,52.9,50.0,30.28,ESE,104,0.0,0.0,90,0.00,,,0.00,Wunderground v.1.15,2013-09-29 01:04:00,
2013-09-28 21:09:00,52.8,49.9,30.28,ESE,104,0.0,0.0,90,0.00,,,0.00,Wunderground v.1.15,2013-09-29 01:09:00,
2013-09-28 21:14:00,52.6,49.8,30.28,ESE,104,0.0,0.0,90,0.00,,,0.00,Wunderground v.1.15,2013-09-29 01:14:00,
2013-09-28 21:19:00,52.4,49.6,30.28,ESE,104,0.0,0.0,90,0.00,,,0.00,Wunderground v.1.15,2013-09-29 01:19:00,
2013-09-28 21:24:00,52.2,49.4,30.28,ESE,104,0.0,0.0,90,0.00,,,0.00,Wunderground v.1.15,2013-09-29 01:24:00,
2013-09-28 21:30:00,52.1,49.3,30.28,ESE,104,0.0,0.0,90,0.00,,,0.00,Wunderground v.1.15,2013-09-29 01:30:00,
2013-09-28 21:35:00,52.0,49.2,30.28,ESE,104,0.0,0.0,90,0.00,,,0.00,Wunderground v.1.15,2013-09-29 01:35:00,
2013-09-28 21:39:00,51.9,49.4,30.28,ESE,104,0.0,0.0,91,0.00,,,0.00,Wunderground v.1.15,2013-09-29 01:39:00,
2013-09-28 21:44:00,51.8,49.3,30.28,ESE,104,0.0,0.0,91,0.00,,,0.00,Wunderground v.1.15,2013-09-29 01:44:00,
2013-09-28 21:49:00,51.6,49.1,30.28,ESE,104,0.0,0.0,91,0.00,,,0.00,Wunderground v.1.15,2013-09-29 01:49:00,
2013-09-28 21:54:00,51.5,49.0,30.28,ESE,104,0.0,0.0,91,0.00,,,0.00,Wunderground v.1.15,2013-09-29 01:54:00,
2013-09-28 22:00:00,51.3,48.8,30.28,ESE,104,0.0,0.0,91,0.00,,,0.00,Wunderground v.1.15,2013-09-29 02:00:00,
2013-09-28 22:05:00,51.1,48.6,30.28,ESE,104,0.0,0.0,91,0.00,,,0.00,Wunderground v.1.15,2013-09-29 02:05:00,
2013-09-28 22:10:00,50.9,48.4,30.28,ESE,104,0.0,0.0,91,0.00,,,0.00,Wunderground v.1.15,2013-09-29 02:10:00,
2013-09-28 22:15:00,50.8,48.3,30.28,ESE,104,0.0,0.0,91,0.00,,,0.00,Wunderground v.1.15,2013-09-29 02:15:00,
2013-09-28 22:20:00,50.6,48.1,30.28,ESE,104,0.0,0.0,91,0.00,,,0.00,Wunderground v.1.15,2013-09-29 02:20:00,
2013-09-28 22:29:00,50.4,48.2,30.27,ESE,104,0.0,0.0,92,0.00,,,0.00,Wunderground v.1.15,2013-09-29 02:29:00,
2013-09-28 22:34:00,50.3,48.1,30.27,ESE,104,0.0,0.0,92,0.00,,,0.00,Wunderground v.1.15,2013-09-29 02:34:00,
2013-09-28 22:39:00,50.1,47.9,30.27,ESE,104,0.0,0.0,92,0.00,,,0.00,Wunderground v.1.15,2013-09-29 02:39:00,
2013-09-28 22:45:00,50.0,47.5,30.27,ESE,104,0.0,0.0,91,0.00,,,0.00,Wunderground v.1.15,2013-09-29 02:45:00,
2013-09-28 22:50:00,49.8,47.6,30.27,ESE,104,0.0,0.0,92,0.00,,,0.00,Wunderground v.1.15,2013-09-29 02:50:00,
2013-09-28 22:55:00,49.6,47.4,30.27,ESE,104,0.0,0.0,92,0.00,,,0.00,Wunderground v.1.15,2013-09-29 02:55:00,
2013-09-28 23:00:00,49.5,47.3,30.27,ESE,104,0.0,0.0,92,0.00,,,0.00,Wunderground v.1.15,2013-09-29 03:00:00,
2013-09-28 23:04:00,49.4,47.2,30.27,ESE,104,0.0,0.0,92,0.00,,,0.00,Wunderground v.1.15,2013-09-29 03:04:00,
2013-09-28 23:09:00,49.3,47.1,30.27,ESE,104,0.0,0.0,92,0.00,,,0.00,Wunderground v.1.15,2013-09-29 03:09:00,
2013-09-28 23:15:00,49.2,47.0,30.27,ESE,104,0.0,0.0,92,0.00,,,0.00,Wunderground v.1.15,2013-09-29 03:15:00,
2013-09-28 23:20:00,49.0,46.8,30.26,ESE,104,0.0,0.0,92,0.00,,,0.00,Wunderground v.1.15,2013-09-29 03:20:00,
2013-09-28 23:29:00,48.7,46.5,30.26,ESE,104,0.0,0.0,92,0.00,,,0.00,Wunderground v.1.15,2013-09-29 03:29:00,
2013-09-28 23:39:00,48.5,46.6,30.26,ESE,104,0.0,0.0,93,0.00,,,0.00,Wunderground v.1.15,2013-09-29 03:39:00,
2013-09-28 23:44:00,48.4,46.5,30.26,ESE,104,0.0,0.0,93,0.00,,,0.00,Wunderground v.1.15,2013-09-29 03:44:00,
2013-09-28 23:49:00,48.4,46.5,30.26,ESE,104,0.0,0.0,93,0.00,,,0.00,Wunderground v.1.15,2013-09-29 03:49:00,
2013-09-28 23:55:00,48.3,46.4,30.26,ESE,104,0.0,0.0,93,0.00,,,0.00,Wunderground v.1.15,2013-09-29 03:55:00,